CheckWX is a tool to help pilots better visualize weather data.  It is not intended as a substitute for an official pre-flight weather briefing.

02:37:24 UTC

KVGT TAF
North Las Vegas Airport
Las Vegas, Nevada, USA
KVGT 052323Z 0600/0624 VRB05KT P6SM FEW250 FM060200 33005KT P6SM BKN250 FM061500 VRB04KT P6SM BKN200 FM062200 15006KT P6SM SCT200

Dec-6@
00:00 UTC

Dec-6 @ 00:00 UTC

Dec-6@
02:00 UTC

Dec-6 @ 02:00 UTC

KVGT 052323Z 0600/0624 VRB05KT P6SM FEW250

Expired

Wind
  • Variable at 5 KTS
Cloud Levels
  • Few at 25,000' AGL

Dec-6@
02:00 UTC

Dec-6 @ 02:00 UTC

Dec-6@
15:00 UTC

Dec-6 @ 15:00 UTC

FM060200 33005KT P6SM BKN250

From

From Standard forecast or significant change

Wind
  • 330° at 5 KTS
Cloud Levels
  • Broken at 25,000' AGL

Dec-6@
15:00 UTC

Dec-6 @ 15:00 UTC

Dec-6@
22:00 UTC

Dec-6 @ 22:00 UTC

FM061500 VRB04KT P6SM BKN200

From

From Standard forecast or significant change

Wind
  • Variable at 4 KTS
Cloud Levels
  • Broken at 20,000' AGL

Dec-6@
22:00 UTC

Dec-6 @ 22:00 UTC

Dec-7@
00:00 UTC

Dec-7 @ 00:00 UTC

FM062200 15006KT P6SM SCT200

From

From Standard forecast or significant change

Wind
  • 150° at 6 KTS
Cloud Levels
  • Scattered at 20,000' AGL